Disclaimer

Please do not use the information listed here in-flight or in-navigation, as they are not provided to us by the airports but are provided by volunteers, so they might be outdated.

Search


Regions


Airport information page

Radio informations:
Tower (TWR) - 118.7 MHz
Approach (APP) - 119.0 MHz

Airport informations:
Latitude: 36° 49' 20.01" N
Longitude: 007° 48' 33.00" E
Elevation: 16 feet - 5 meters
Operating hours: N/A
Operating agency: Civil government, landing fees and diplomatic clearance may be required
Timezone: UTC+1
Fuel: N/A

Runway information:
01/19 - 9843 x 148 feet< - >3000 x 45 meters
05/23 - 7513 x 148 feet< - >2290 x 45 meters

Recent METARs:
DABB 130130Z 22006KT 9999 FEW020 11/08 Q1016
DABB 130200Z 21010KT 9999 FEW020 11/08 Q1016
DABB 130230Z 25011KT 9999 FEW020 10/08 Q1016

Airport on the map: